sensor_id;sensor_type;location;lat;lon;timestamp;P1;durP1;ratioP1;P2;durP2;ratioP2
18610;SDS011;9435;52.122;5.502;2023-05-29T00:00:40;27.15;;;4.10;;
18610;SDS011;9435;52.122;5.502;2023-05-29T00:03:07;20.70;;;3.35;;
18610;SDS011;9435;52.122;5.502;2023-05-29T00:05:34;26.42;;;3.85;;
18610;SDS011;9435;52.122;5.502;2023-05-29T00:08:01;28.77;;;3.80;;
18610;SDS011;9435;52.122;5.502;2023-05-29T00:10:30;25.83;;;4.13;;
18610;SDS011;9435;52.122;5.502;2023-05-29T00:12:57;29.25;;;4.07;;
18610;SDS011;9435;52.122;5.502;2023-05-29T00:15:26;28.05;;;3.80;;
18610;SDS011;9435;52.122;5.502;2023-05-29T00:17:53;24.00;;;3.40;;
18610;SDS011;9435;52.122;5.502;2023-05-29T00:20:20;22.83;;;3.55;;
18610;SDS011;9435;52.122;5.502;2023-05-29T00:22:47;24.40;;;3.40;;
18610;SDS011;9435;52.122;5.502;2023-05-29T00:25:14;19.48;;;3.50;;
18610;SDS011;9435;52.122;5.502;2023-05-29T00:27:43;20.10;;;3.33;;
18610;SDS011;9435;52.122;5.502;2023-05-29T00:30:10;20.30;;;2.63;;
18610;SDS011;9435;52.122;5.502;2023-05-29T00:32:38;17.45;;;3.55;;
18610;SDS011;9435;52.122;5.502;2023-05-29T00:35:06;25.63;;;4.05;;
18610;SDS011;9435;52.122;5.502;2023-05-29T00:37:33;18.58;;;3.10;;
18610;SDS011;9435;52.122;5.502;2023-05-29T00:40:01;21.17;;;3.30;;
18610;SDS011;9435;52.122;5.502;2023-05-29T00:42:29;19.20;;;3.20;;
18610;SDS011;9435;52.122;5.502;2023-05-29T00:44:57;21.30;;;2.90;;
18610;SDS011;9435;52.122;5.502;2023-05-29T00:47:24;20.42;;;3.17;;
18610;SDS011;9435;52.122;5.502;2023-05-29T00:49:52;24.13;;;3.22;;
18610;SDS011;9435;52.122;5.502;2023-05-29T00:52:21;18.00;;;3.40;;
18610;SDS011;9435;52.122;5.502;2023-05-29T00:54:49;22.48;;;3.33;;
18610;SDS011;9435;52.122;5.502;2023-05-29T00:57:17;21.55;;;3.33;;
18610;SDS011;9435;52.122;5.502;2023-05-29T00:59:45;23.80;;;3.15;;
18610;SDS011;9435;52.122;5.502;2023-05-29T01:02:15;19.42;;;2.95;;
18610;SDS011;9435;52.122;5.502;2023-05-29T01:04:43;21.20;;;3.20;;
18610;SDS011;9435;52.122;5.502;2023-05-29T01:07:11;22.73;;;3.28;;
18610;SDS011;9435;52.122;5.502;2023-05-29T01:09:39;20.83;;;3.45;;
18610;SDS011;9435;52.122;5.502;2023-05-29T01:12:08;24.85;;;2.88;;
18610;SDS011;9435;52.122;5.502;2023-05-29T01:14:49;19.98;;;2.90;;
18610;SDS011;9435;52.122;5.502;2023-05-29T01:17:29;22.52;;;3.33;;
18610;SDS011;9435;52.122;5.502;2023-05-29T01:20:09;22.40;;;3.40;;
18610;SDS011;9435;52.122;5.502;2023-05-29T01:22:54;22.70;;;3.65;;
18610;SDS011;9435;52.122;5.502;2023-05-29T01:25:46;19.58;;;2.80;;
18610;SDS011;9435;52.122;5.502;2023-05-29T01:28:27;22.55;;;2.95;;
18610;SDS011;9435;52.122;5.502;2023-05-29T01:30:59;19.55;;;3.05;;
18610;SDS011;9435;52.122;5.502;2023-05-29T01:33:29;21.13;;;3.20;;
18610;SDS011;9435;52.122;5.502;2023-05-29T01:35:56;20.95;;;3.60;;
18610;SDS011;9435;52.122;5.502;2023-05-29T01:38:23;24.73;;;3.25;;
18610;SDS011;9435;52.122;5.502;2023-05-29T01:40:50;25.10;;;3.33;;
18610;SDS011;9435;52.122;5.502;2023-05-29T01:43:17;21.98;;;3.25;;
18610;SDS011;9435;52.122;5.502;2023-05-29T01:45:46;21.83;;;3.13;;
18610;SDS011;9435;52.122;5.502;2023-05-29T01:48:13;22.50;;;3.00;;
18610;SDS011;9435;52.122;5.502;2023-05-29T01:50:41;25.60;;;3.17;;
18610;SDS011;9435;52.122;5.502;2023-05-29T01:53:10;25.20;;;2.67;;
18610;SDS011;9435;52.122;5.502;2023-05-29T01:55:37;23.48;;;3.22;;
18610;SDS011;9435;52.122;5.502;2023-05-29T01:58:04;17.40;;;2.75;;
18610;SDS011;9435;52.122;5.502;2023-05-29T02:00:33;20.95;;;3.30;;
18610;SDS011;9435;52.122;5.502;2023-05-29T02:03:02;19.02;;;3.17;;
18610;SDS011;9435;52.122;5.502;2023-05-29T02:05:29;20.40;;;3.25;;
18610;SDS011;9435;52.122;5.502;2023-05-29T02:07:56;25.00;;;3.08;;
18610;SDS011;9435;52.122;5.502;2023-05-29T02:10:23;22.75;;;3.00;;
18610;SDS011;9435;52.122;5.502;2023-05-29T02:12:50;26.10;;;3.45;;
18610;SDS011;9435;52.122;5.502;2023-05-29T02:15:17;26.05;;;3.20;;
18610;SDS011;9435;52.122;5.502;2023-05-29T02:17:44;27.73;;;3.30;;
18610;SDS011;9435;52.122;5.502;2023-05-29T02:20:13;20.20;;;2.85;;
18610;SDS011;9435;52.122;5.502;2023-05-29T02:22:40;22.10;;;2.92;;
18610;SDS011;9435;52.122;5.502;2023-05-29T02:25:08;25.63;;;3.17;;
18610;SDS011;9435;52.122;5.502;2023-05-29T02:27:35;15.43;;;2.90;;
18610;SDS011;9435;52.122;5.502;2023-05-29T02:30:02;16.38;;;2.88;;
18610;SDS011;9435;52.122;5.502;2023-05-29T02:32:30;17.40;;;3.03;;
18610;SDS011;9435;52.122;5.502;2023-05-29T02:34:57;20.50;;;2.75;;
18610;SDS011;9435;52.122;5.502;2023-05-29T02:37:26;26.90;;;3.42;;
18610;SDS011;9435;52.122;5.502;2023-05-29T02:39:53;24.90;;;3.53;;
18610;SDS011;9435;52.122;5.502;2023-05-29T02:42:20;19.13;;;3.30;;
18610;SDS011;9435;52.122;5.502;2023-05-29T02:44:47;16.98;;;2.85;;
18610;SDS011;9435;52.122;5.502;2023-05-29T02:47:15;22.65;;;2.95;;
18610;SDS011;9435;52.122;5.502;2023-05-29T02:49:42;22.20;;;2.88;;
18610;SDS011;9435;52.122;5.502;2023-05-29T02:52:09;23.73;;;3.42;;
18610;SDS011;9435;52.122;5.502;2023-05-29T02:54:37;21.42;;;3.03;;
18610;SDS011;9435;52.122;5.502;2023-05-29T02:57:05;24.63;;;2.90;;
18610;SDS011;9435;52.122;5.502;2023-05-29T02:59:32;13.20;;;2.88;;
18610;SDS011;9435;52.122;5.502;2023-05-29T03:01:59;20.35;;;2.92;;
18610;SDS011;9435;52.122;5.502;2023-05-29T03:04:26;17.80;;;2.70;;
18610;SDS011;9435;52.122;5.502;2023-05-29T03:06:53;20.52;;;2.97;;
18610;SDS011;9435;52.122;5.502;2023-05-29T03:09:20;21.13;;;2.90;;
18610;SDS011;9435;52.122;5.502;2023-05-29T03:11:49;19.73;;;2.70;;
18610;SDS011;9435;52.122;5.502;2023-05-29T03:14:17;18.63;;;3.03;;
18610;SDS011;9435;52.122;5.502;2023-05-29T03:16:46;23.08;;;3.55;;
18610;SDS011;9435;52.122;5.502;2023-05-29T03:19:14;20.25;;;3.22;;
18610;SDS011;9435;52.122;5.502;2023-05-29T03:21:41;24.33;;;3.17;;
18610;SDS011;9435;52.122;5.502;2023-05-29T03:24:08;20.13;;;3.15;;
18610;SDS011;9435;52.122;5.502;2023-05-29T03:26:36;19.33;;;3.10;;
18610;SDS011;9435;52.122;5.502;2023-05-29T03:29:04;21.35;;;3.20;;
18610;SDS011;9435;52.122;5.502;2023-05-29T03:31:32;18.17;;;2.90;;
18610;SDS011;9435;52.122;5.502;2023-05-29T03:34:00;21.80;;;3.65;;
18610;SDS011;9435;52.122;5.502;2023-05-29T03:36:27;23.75;;;3.28;;
18610;SDS011;9435;52.122;5.502;2023-05-29T03:38:54;20.73;;;3.35;;
18610;SDS011;9435;52.122;5.502;2023-05-29T03:41:21;22.75;;;2.75;;
18610;SDS011;9435;52.122;5.502;2023-05-29T03:43:48;25.40;;;3.38;;
18610;SDS011;9435;52.122;5.502;2023-05-29T03:46:17;18.40;;;3.00;;
18610;SDS011;9435;52.122;5.502;2023-05-29T03:48:44;20.02;;;3.13;;
18610;SDS011;9435;52.122;5.502;2023-05-29T03:51:11;18.63;;;2.88;;
18610;SDS011;9435;52.122;5.502;2023-05-29T03:53:38;25.20;;;3.30;;
18610;SDS011;9435;52.122;5.502;2023-05-29T03:56:05;21.42;;;3.40;;
18610;SDS011;9435;52.122;5.502;2023-05-29T03:58:32;25.13;;;2.92;;
18610;SDS011;9435;52.122;5.502;2023-05-29T04:01:01;24.27;;;3.75;;
18610;SDS011;9435;52.122;5.502;2023-05-29T04:03:30;18.20;;;2.75;;
18610;SDS011;9435;52.122;5.502;2023-05-29T04:05:57;20.48;;;3.13;;
18610;SDS011;9435;52.122;5.502;2023-05-29T04:08:25;15.85;;;2.72;;
18610;SDS011;9435;52.122;5.502;2023-05-29T04:10:52;19.15;;;3.10;;
18610;SDS011;9435;52.122;5.502;2023-05-29T04:13:19;22.85;;;2.95;;
18610;SDS011;9435;52.122;5.502;2023-05-29T04:15:46;18.85;;;2.75;;
18610;SDS011;9435;52.122;5.502;2023-05-29T04:18:13;17.63;;;2.97;;
18610;SDS011;9435;52.122;5.502;2023-05-29T04:20:42;22.13;;;2.95;;
18610;SDS011;9435;52.122;5.502;2023-05-29T04:23:12;22.40;;;3.13;;
18610;SDS011;9435;52.122;5.502;2023-05-29T04:25:39;17.98;;;2.88;;
18610;SDS011;9435;52.122;5.502;2023-05-29T04:28:06;22.30;;;3.17;;
18610;SDS011;9435;52.122;5.502;2023-05-29T04:30:35;17.13;;;2.53;;
18610;SDS011;9435;52.122;5.502;2023-05-29T04:33:04;24.88;;;3.35;;
18610;SDS011;9435;52.122;5.502;2023-05-29T04:35:31;17.83;;;3.47;;
18610;SDS011;9435;52.122;5.502;2023-05-29T04:37:59;18.02;;;2.70;;
18610;SDS011;9435;52.122;5.502;2023-05-29T04:40:26;27.50;;;2.88;;
18610;SDS011;9435;52.122;5.502;2023-05-29T04:42:53;21.48;;;2.80;;
18610;SDS011;9435;52.122;5.502;2023-05-29T04:45:21;16.95;;;2.65;;
18610;SDS011;9435;52.122;5.502;2023-05-29T04:47:49;15.18;;;2.63;;
18610;SDS011;9435;52.122;5.502;2023-05-29T04:50:18;21.77;;;2.80;;
18610;SDS011;9435;52.122;5.502;2023-05-29T04:52:45;19.90;;;3.13;;
18610;SDS011;9435;52.122;5.502;2023-05-29T04:55:14;16.58;;;3.03;;
18610;SDS011;9435;52.122;5.502;2023-05-29T04:57:41;20.42;;;3.05;;
18610;SDS011;9435;52.122;5.502;2023-05-29T05:00:08;20.08;;;2.80;;
18610;SDS011;9435;52.122;5.502;2023-05-29T05:02:39;21.90;;;2.85;;
18610;SDS011;9435;52.122;5.502;2023-05-29T05:05:07;23.77;;;3.25;;
18610;SDS011;9435;52.122;5.502;2023-05-29T05:07:34;24.70;;;3.10;;
18610;SDS011;9435;52.122;5.502;2023-05-29T05:10:02;19.50;;;2.78;;
18610;SDS011;9435;52.122;5.502;2023-05-29T05:12:30;20.42;;;2.92;;
18610;SDS011;9435;52.122;5.502;2023-05-29T05:14:57;17.48;;;2.60;;
18610;SDS011;9435;52.122;5.502;2023-05-29T05:17:24;17.73;;;2.83;;
18610;SDS011;9435;52.122;5.502;2023-05-29T05:19:52;21.17;;;2.95;;
18610;SDS011;9435;52.122;5.502;2023-05-29T05:22:19;15.43;;;2.42;;
18610;SDS011;9435;52.122;5.502;2023-05-29T05:24:46;22.08;;;2.90;;
18610;SDS011;9435;52.122;5.502;2023-05-29T05:27:13;23.55;;;3.00;;
18610;SDS011;9435;52.122;5.502;2023-05-29T05:29:42;18.08;;;2.80;;
18610;SDS011;9435;52.122;5.502;2023-05-29T05:32:09;17.98;;;2.85;;
18610;SDS011;9435;52.122;5.502;2023-05-29T05:34:36;20.85;;;2.80;;
18610;SDS011;9435;52.122;5.502;2023-05-29T05:37:03;23.38;;;3.20;;
18610;SDS011;9435;52.122;5.502;2023-05-29T05:39:32;17.20;;;2.50;;
18610;SDS011;9435;52.122;5.502;2023-05-29T05:41:59;20.52;;;3.00;;
18610;SDS011;9435;52.122;5.502;2023-05-29T05:44:26;14.68;;;2.83;;
18610;SDS011;9435;52.122;5.502;2023-05-29T05:46:55;20.75;;;2.90;;
18610;SDS011;9435;52.122;5.502;2023-05-29T05:49:22;18.20;;;2.88;;
18610;SDS011;9435;52.122;5.502;2023-05-29T05:51:49;15.07;;;2.50;;
18610;SDS011;9435;52.122;5.502;2023-05-29T05:54:16;19.17;;;2.85;;
18610;SDS011;9435;52.122;5.502;2023-05-29T05:56:43;14.27;;;2.20;;
18610;SDS011;9435;52.122;5.502;2023-05-29T05:59:10;20.75;;;2.58;;
18610;SDS011;9435;52.122;5.502;2023-05-29T06:01:37;17.23;;;2.78;;
18610;SDS011;9435;52.122;5.502;2023-05-29T06:04:07;22.48;;;2.83;;
18610;SDS011;9435;52.122;5.502;2023-05-29T06:06:34;18.70;;;2.65;;
18610;SDS011;9435;52.122;5.502;2023-05-29T06:09:02;22.55;;;2.80;;
18610;SDS011;9435;52.122;5.502;2023-05-29T06:11:29;14.27;;;2.30;;
18610;SDS011;9435;52.122;5.502;2023-05-29T06:13:56;17.20;;;2.72;;
18610;SDS011;9435;52.122;5.502;2023-05-29T06:16:24;23.05;;;2.65;;
18610;SDS011;9435;52.122;5.502;2023-05-29T06:18:55;14.73;;;2.53;;
18610;SDS011;9435;52.122;5.502;2023-05-29T06:21:23;12.60;;;2.30;;
18610;SDS011;9435;52.122;5.502;2023-05-29T06:23:53;14.82;;;2.50;;
18610;SDS011;9435;52.122;5.502;2023-05-29T06:26:20;15.82;;;2.05;;
18610;SDS011;9435;52.122;5.502;2023-05-29T06:28:48;12.23;;;2.17;;
18610;SDS011;9435;52.122;5.502;2023-05-29T06:31:15;19.70;;;2.70;;
18610;SDS011;9435;52.122;5.502;2023-05-29T06:33:43;19.27;;;2.38;;
18610;SDS011;9435;52.122;5.502;2023-05-29T06:36:10;12.88;;;2.05;;
18610;SDS011;9435;52.122;5.502;2023-05-29T06:38:39;17.55;;;2.72;;
18610;SDS011;9435;52.122;5.502;2023-05-29T06:41:11;16.02;;;2.22;;
18610;SDS011;9435;52.122;5.502;2023-05-29T06:43:38;17.67;;;2.40;;
18610;SDS011;9435;52.122;5.502;2023-05-29T06:46:06;14.50;;;2.13;;
18610;SDS011;9435;52.122;5.502;2023-05-29T06:48:38;14.25;;;1.98;;
18610;SDS011;9435;52.122;5.502;2023-05-29T06:51:08;17.33;;;2.70;;
18610;SDS011;9435;52.122;5.502;2023-05-29T06:53:37;13.10;;;2.22;;
18610;SDS011;9435;52.122;5.502;2023-05-29T06:56:06;15.07;;;2.10;;
18610;SDS011;9435;52.122;5.502;2023-05-29T06:58:33;17.83;;;2.70;;
18610;SDS011;9435;52.122;5.502;2023-05-29T07:01:00;12.63;;;2.15;;
18610;SDS011;9435;52.122;5.502;2023-05-29T07:03:27;14.57;;;2.20;;
18610;SDS011;9435;52.122;5.502;2023-05-29T07:05:55;12.23;;;2.25;;
18610;SDS011;9435;52.122;5.502;2023-05-29T07:08:22;15.60;;;2.47;;
18610;SDS011;9435;52.122;5.502;2023-05-29T07:10:49;13.15;;;2.50;;
18610;SDS011;9435;52.122;5.502;2023-05-29T07:13:18;14.98;;;2.63;;
18610;SDS011;9435;52.122;5.502;2023-05-29T07:15:45;14.60;;;2.40;;
18610;SDS011;9435;52.122;5.502;2023-05-29T07:18:12;12.75;;;2.42;;
18610;SDS011;9435;52.122;5.502;2023-05-29T07:20:40;8.63;;;2.13;;
18610;SDS011;9435;52.122;5.502;2023-05-29T07:23:07;22.05;;;2.70;;
18610;SDS011;9435;52.122;5.502;2023-05-29T07:25:34;13.82;;;2.55;;
18610;SDS011;9435;52.122;5.502;2023-05-29T07:28:01;16.13;;;2.60;;
18610;SDS011;9435;52.122;5.502;2023-05-29T07:30:29;12.75;;;2.50;;
18610;SDS011;9435;52.122;5.502;2023-05-29T07:32:56;16.35;;;2.83;;
18610;SDS011;9435;52.122;5.502;2023-05-29T07:35:24;15.38;;;2.53;;
18610;SDS011;9435;52.122;5.502;2023-05-29T07:37:51;14.50;;;2.72;;
18610;SDS011;9435;52.122;5.502;2023-05-29T07:40:19;14.63;;;2.45;;
18610;SDS011;9435;52.122;5.502;2023-05-29T07:42:46;12.40;;;2.20;;
18610;SDS011;9435;52.122;5.502;2023-05-29T07:45:13;15.88;;;2.70;;
18610;SDS011;9435;52.122;5.502;2023-05-29T07:47:42;12.50;;;2.53;;
18610;SDS011;9435;52.122;5.502;2023-05-29T07:50:09;16.77;;;2.58;;
18610;SDS011;9435;52.122;5.502;2023-05-29T07:52:38;17.23;;;2.75;;
18610;SDS011;9435;52.122;5.502;2023-05-29T07:55:05;14.07;;;2.72;;
18610;SDS011;9435;52.122;5.502;2023-05-29T07:57:32;14.45;;;2.70;;
18610;SDS011;9435;52.122;5.502;2023-05-29T08:00:00;14.50;;;2.30;;
18610;SDS011;9435;52.122;5.502;2023-05-29T08:02:33;12.93;;;2.50;;
18610;SDS011;9435;52.122;5.502;2023-05-29T08:05:02;11.90;;;2.00;;
18610;SDS011;9435;52.122;5.502;2023-05-29T08:07:30;14.60;;;2.53;;
18610;SDS011;9435;52.122;5.502;2023-05-29T08:09:58;13.88;;;2.40;;
18610;SDS011;9435;52.122;5.502;2023-05-29T08:12:25;10.93;;;2.00;;
18610;SDS011;9435;52.122;5.502;2023-05-29T08:14:52;14.85;;;3.05;;
18610;SDS011;9435;52.122;5.502;2023-05-29T08:17:19;14.45;;;2.15;;
18610;SDS011;9435;52.122;5.502;2023-05-29T08:19:46;15.13;;;2.55;;
18610;SDS011;9435;52.122;5.502;2023-05-29T08:22:15;11.50;;;2.17;;
18610;SDS011;9435;52.122;5.502;2023-05-29T08:24:42;15.13;;;2.58;;
18610;SDS011;9435;52.122;5.502;2023-05-29T08:27:09;10.52;;;2.08;;
18610;SDS011;9435;52.122;5.502;2023-05-29T08:29:36;11.27;;;2.00;;
18610;SDS011;9435;52.122;5.502;2023-05-29T08:32:04;10.20;;;2.10;;
18610;SDS011;9435;52.122;5.502;2023-05-29T08:34:31;13.32;;;2.60;;
18610;SDS011;9435;52.122;5.502;2023-05-29T08:36:58;13.55;;;2.20;;
18610;SDS011;9435;52.122;5.502;2023-05-29T08:39:26;16.65;;;2.40;;
18610;SDS011;9435;52.122;5.502;2023-05-29T08:41:56;12.07;;;2.40;;
18610;SDS011;9435;52.122;5.502;2023-05-29T08:44:29;13.13;;;2.15;;
18610;SDS011;9435;52.122;5.502;2023-05-29T08:46:59;10.00;;;2.00;;
18610;SDS011;9435;52.122;5.502;2023-05-29T08:49:29;11.25;;;2.00;;
18610;SDS011;9435;52.122;5.502;2023-05-29T08:52:09;14.10;;;2.33;;
18610;SDS011;9435;52.122;5.502;2023-05-29T08:54:41;10.68;;;2.10;;
18610;SDS011;9435;52.122;5.502;2023-05-29T08:57:10;14.32;;;2.00;;
18610;SDS011;9435;52.122;5.502;2023-05-29T08:59:42;11.60;;;2.35;;
18610;SDS011;9435;52.122;5.502;2023-05-29T09:02:10;10.02;;;2.30;;
18610;SDS011;9435;52.122;5.502;2023-05-29T09:04:37;11.52;;;1.80;;
18610;SDS011;9435;52.122;5.502;2023-05-29T09:07:04;11.93;;;2.28;;
18610;SDS011;9435;52.122;5.502;2023-05-29T09:09:33;14.23;;;2.55;;
18610;SDS011;9435;52.122;5.502;2023-05-29T09:12:02;14.95;;;2.63;;
18610;SDS011;9435;52.122;5.502;2023-05-29T09:14:33;11.82;;;2.38;;
18610;SDS011;9435;52.122;5.502;2023-05-29T09:17:01;12.15;;;2.53;;
18610;SDS011;9435;52.122;5.502;2023-05-29T09:19:29;12.23;;;2.05;;
18610;SDS011;9435;52.122;5.502;2023-05-29T09:22:00;12.07;;;2.50;;
18610;SDS011;9435;52.122;5.502;2023-05-29T09:24:29;11.02;;;2.40;;
18610;SDS011;9435;52.122;5.502;2023-05-29T09:26:56;13.23;;;2.33;;
18610;SDS011;9435;52.122;5.502;2023-05-29T09:29:27;11.43;;;2.42;;
18610;SDS011;9435;52.122;5.502;2023-05-29T09:31:56;12.55;;;2.53;;
18610;SDS011;9435;52.122;5.502;2023-05-29T09:34:24;9.00;;;2.17;;
18610;SDS011;9435;52.122;5.502;2023-05-29T09:36:52;13.40;;;2.40;;
18610;SDS011;9435;52.122;5.502;2023-05-29T09:39:21;12.20;;;2.55;;
18610;SDS011;9435;52.122;5.502;2023-05-29T09:41:48;15.73;;;2.92;;
18610;SDS011;9435;52.122;5.502;2023-05-29T09:44:16;13.10;;;2.67;;
18610;SDS011;9435;52.122;5.502;2023-05-29T09:46:44;13.95;;;2.47;;
18610;SDS011;9435;52.122;5.502;2023-05-29T09:49:15;11.65;;;2.55;;
18610;SDS011;9435;52.122;5.502;2023-05-29T09:51:42;14.90;;;2.63;;
18610;SDS011;9435;52.122;5.502;2023-05-29T09:54:17;11.35;;;2.50;;
18610;SDS011;9435;52.122;5.502;2023-05-29T09:56:45;14.75;;;2.75;;
18610;SDS011;9435;52.122;5.502;2023-05-29T09:59:12;17.27;;;2.78;;
18610;SDS011;9435;52.122;5.502;2023-05-29T10:01:44;14.00;;;2.72;;
18610;SDS011;9435;52.122;5.502;2023-05-29T10:04:11;13.07;;;2.80;;
18610;SDS011;9435;52.122;5.502;2023-05-29T10:06:41;16.17;;;2.90;;
18610;SDS011;9435;52.122;5.502;2023-05-29T10:09:11;17.33;;;3.25;;
18610;SDS011;9435;52.122;5.502;2023-05-29T10:11:41;18.13;;;3.08;;
18610;SDS011;9435;52.122;5.502;2023-05-29T10:14:11;11.82;;;2.53;;
18610;SDS011;9435;52.122;5.502;2023-05-29T10:16:46;15.48;;;3.20;;
18610;SDS011;9435;52.122;5.502;2023-05-29T10:19:16;15.73;;;3.00;;
18610;SDS011;9435;52.122;5.502;2023-05-29T10:21:48;15.10;;;3.10;;
18610;SDS011;9435;52.122;5.502;2023-05-29T10:24:17;14.82;;;2.80;;
18610;SDS011;9435;52.122;5.502;2023-05-29T10:26:46;12.95;;;2.63;;
18610;SDS011;9435;52.122;5.502;2023-05-29T10:29:17;12.75;;;3.05;;
18610;SDS011;9435;52.122;5.502;2023-05-29T10:31:56;13.88;;;2.83;;
18610;SDS011;9435;52.122;5.502;2023-05-29T10:34:33;13.43;;;3.08;;
18610;SDS011;9435;52.122;5.502;2023-05-29T10:37:09;13.95;;;2.92;;
18610;SDS011;9435;52.122;5.502;2023-05-29T10:39:44;17.25;;;2.78;;
18610;SDS011;9435;52.122;5.502;2023-05-29T10:45:10;12.20;;;2.47;;
18610;SDS011;9435;52.122;5.502;2023-05-29T10:47:39;13.43;;;2.90;;
18610;SDS011;9435;52.122;5.502;2023-05-29T10:50:06;12.00;;;2.83;;
18610;SDS011;9435;52.122;5.502;2023-05-29T10:52:33;13.73;;;2.60;;
18610;SDS011;9435;52.122;5.502;2023-05-29T10:55:01;12.88;;;2.78;;
18610;SDS011;9435;52.122;5.502;2023-05-29T10:57:30;15.45;;;2.75;;
18610;SDS011;9435;52.122;5.502;2023-05-29T11:00:05;13.52;;;2.65;;
18610;SDS011;9435;52.122;5.502;2023-05-29T11:02:39;12.35;;;2.80;;
18610;SDS011;9435;52.122;5.502;2023-05-29T11:05:17;14.95;;;2.78;;
18610;SDS011;9435;52.122;5.502;2023-05-29T11:07:52;14.60;;;2.70;;
18610;SDS011;9435;52.122;5.502;2023-05-29T11:13:08;13.25;;;2.78;;
18610;SDS011;9435;52.122;5.502;2023-05-29T11:15:36;17.20;;;2.97;;
18610;SDS011;9435;52.122;5.502;2023-05-29T11:18:08;15.75;;;3.20;;
18610;SDS011;9435;52.122;5.502;2023-05-29T11:20:42;16.38;;;3.20;;
18610;SDS011;9435;52.122;5.502;2023-05-29T11:23:15;15.25;;;3.17;;
18610;SDS011;9435;52.122;5.502;2023-05-29T11:25:43;17.88;;;3.10;;
18610;SDS011;9435;52.122;5.502;2023-05-29T11:28:12;11.23;;;2.67;;
18610;SDS011;9435;52.122;5.502;2023-05-29T11:30:42;18.40;;;3.38;;
18610;SDS011;9435;52.122;5.502;2023-05-29T11:33:18;16.80;;;3.33;;
18610;SDS011;9435;52.122;5.502;2023-05-29T11:35:50;11.25;;;2.70;;
18610;SDS011;9435;52.122;5.502;2023-05-29T11:38:22;15.38;;;3.35;;
18610;SDS011;9435;52.122;5.502;2023-05-29T11:40:49;14.18;;;3.35;;
18610;SDS011;9435;52.122;5.502;2023-05-29T11:43:17;14.98;;;2.58;;
18610;SDS011;9435;52.122;5.502;2023-05-29T11:45:44;11.45;;;2.72;;
18610;SDS011;9435;52.122;5.502;2023-05-29T11:48:11;14.70;;;3.10;;
18610;SDS011;9435;52.122;5.502;2023-05-29T11:50:39;16.00;;;3.03;;
18610;SDS011;9435;52.122;5.502;2023-05-29T11:53:07;14.52;;;3.10;;
18610;SDS011;9435;52.122;5.502;2023-05-29T11:55:34;14.00;;;3.20;;
18610;SDS011;9435;52.122;5.502;2023-05-29T11:58:02;11.88;;;2.42;;
18610;SDS011;9435;52.122;5.502;2023-05-29T12:00:30;12.60;;;2.70;;
18610;SDS011;9435;52.122;5.502;2023-05-29T12:02:59;13.93;;;3.00;;
18610;SDS011;9435;52.122;5.502;2023-05-29T12:05:28;16.60;;;3.20;;
18610;SDS011;9435;52.122;5.502;2023-05-29T12:07:57;14.43;;;2.90;;
18610;SDS011;9435;52.122;5.502;2023-05-29T12:10:27;16.05;;;2.90;;
18610;SDS011;9435;52.122;5.502;2023-05-29T12:12:55;13.35;;;3.10;;
18610;SDS011;9435;52.122;5.502;2023-05-29T12:15:25;15.57;;;2.92;;
18610;SDS011;9435;52.122;5.502;2023-05-29T12:17:53;17.60;;;2.92;;
18610;SDS011;9435;52.122;5.502;2023-05-29T12:20:22;14.00;;;2.83;;
18610;SDS011;9435;52.122;5.502;2023-05-29T12:22:51;13.85;;;2.65;;
18610;SDS011;9435;52.122;5.502;2023-05-29T12:25:20;15.77;;;2.90;;
18610;SDS011;9435;52.122;5.502;2023-05-29T12:27:47;18.50;;;3.17;;
18610;SDS011;9435;52.122;5.502;2023-05-29T12:30:19;13.60;;;2.90;;
18610;SDS011;9435;52.122;5.502;2023-05-29T12:32:48;15.63;;;3.05;;
18610;SDS011;9435;52.122;5.502;2023-05-29T12:35:17;17.23;;;2.90;;
18610;SDS011;9435;52.122;5.502;2023-05-29T12:37:46;14.68;;;2.40;;
18610;SDS011;9435;52.122;5.502;2023-05-29T12:40:14;11.27;;;2.42;;
18610;SDS011;9435;52.122;5.502;2023-05-29T12:42:43;15.52;;;2.85;;
18610;SDS011;9435;52.122;5.502;2023-05-29T12:45:11;14.70;;;2.97;;
18610;SDS011;9435;52.122;5.502;2023-05-29T12:47:44;17.92;;;2.97;;
18610;SDS011;9435;52.122;5.502;2023-05-29T12:50:19;18.48;;;3.17;;
18610;SDS011;9435;52.122;5.502;2023-05-29T12:52:52;15.02;;;2.53;;
18610;SDS011;9435;52.122;5.502;2023-05-29T12:55:20;12.85;;;2.63;;
18610;SDS011;9435;52.122;5.502;2023-05-29T12:57:49;16.58;;;3.42;;
18610;SDS011;9435;52.122;5.502;2023-05-29T13:00:16;13.10;;;2.78;;
18610;SDS011;9435;52.122;5.502;2023-05-29T13:02:45;10.35;;;2.40;;
18610;SDS011;9435;52.122;5.502;2023-05-29T13:05:12;16.13;;;2.63;;
18610;SDS011;9435;52.122;5.502;2023-05-29T13:07:40;14.30;;;2.70;;
18610;SDS011;9435;52.122;5.502;2023-05-29T13:10:08;19.05;;;3.10;;
18610;SDS011;9435;52.122;5.502;2023-05-29T13:12:36;19.20;;;2.95;;
18610;SDS011;9435;52.122;5.502;2023-05-29T13:15:05;14.73;;;2.92;;
18610;SDS011;9435;52.122;5.502;2023-05-29T13:17:33;13.43;;;2.60;;
18610;SDS011;9435;52.122;5.502;2023-05-29T13:20:00;15.40;;;2.70;;
18610;SDS011;9435;52.122;5.502;2023-05-29T13:22:27;14.70;;;2.70;;
18610;SDS011;9435;52.122;5.502;2023-05-29T13:24:57;15.25;;;2.45;;
18610;SDS011;9435;52.122;5.502;2023-05-29T13:27:24;14.40;;;2.60;;
18610;SDS011;9435;52.122;5.502;2023-05-29T13:29:55;14.10;;;2.70;;
18610;SDS011;9435;52.122;5.502;2023-05-29T13:32:23;16.33;;;2.80;;
18610;SDS011;9435;52.122;5.502;2023-05-29T13:34:50;14.10;;;2.88;;
18610;SDS011;9435;52.122;5.502;2023-05-29T13:37:17;16.35;;;2.90;;
18610;SDS011;9435;52.122;5.502;2023-05-29T13:39:44;14.82;;;2.67;;
18610;SDS011;9435;52.122;5.502;2023-05-29T13:42:11;13.57;;;2.60;;
18610;SDS011;9435;52.122;5.502;2023-05-29T13:44:41;13.27;;;2.63;;
18610;SDS011;9435;52.122;5.502;2023-05-29T13:47:08;11.45;;;2.38;;
18610;SDS011;9435;52.122;5.502;2023-05-29T13:49:37;13.75;;;2.70;;
18610;SDS011;9435;52.122;5.502;2023-05-29T13:52:05;15.23;;;2.40;;
18610;SDS011;9435;52.122;5.502;2023-05-29T13:54:35;15.07;;;2.80;;
18610;SDS011;9435;52.122;5.502;2023-05-29T13:57:03;12.77;;;2.58;;
18610;SDS011;9435;52.122;5.502;2023-05-29T13:59:31;13.43;;;2.70;;
18610;SDS011;9435;52.122;5.502;2023-05-29T14:01:58;12.23;;;2.90;;
18610;SDS011;9435;52.122;5.502;2023-05-29T14:04:26;16.17;;;3.28;;
18610;SDS011;9435;52.122;5.502;2023-05-29T14:06:54;11.43;;;2.67;;
18610;SDS011;9435;52.122;5.502;2023-05-29T14:09:22;12.95;;;2.60;;
18610;SDS011;9435;52.122;5.502;2023-05-29T14:11:52;10.45;;;2.50;;
18610;SDS011;9435;52.122;5.502;2023-05-29T14:14:20;15.18;;;3.00;;
18610;SDS011;9435;52.122;5.502;2023-05-29T14:16:47;13.20;;;2.63;;
18610;SDS011;9435;52.122;5.502;2023-05-29T14:19:14;13.30;;;2.67;;
18610;SDS011;9435;52.122;5.502;2023-05-29T14:21:41;12.02;;;2.50;;
18610;SDS011;9435;52.122;5.502;2023-05-29T14:24:10;15.02;;;2.92;;
18610;SDS011;9435;52.122;5.502;2023-05-29T14:26:38;15.25;;;2.60;;
18610;SDS011;9435;52.122;5.502;2023-05-29T14:29:05;12.68;;;2.47;;
18610;SDS011;9435;52.122;5.502;2023-05-29T14:31:32;12.05;;;2.40;;
18610;SDS011;9435;52.122;5.502;2023-05-29T14:33:59;11.98;;;2.40;;
18610;SDS011;9435;52.122;5.502;2023-05-29T14:36:26;10.75;;;2.45;;
18610;SDS011;9435;52.122;5.502;2023-05-29T14:38:53;15.25;;;2.53;;
18610;SDS011;9435;52.122;5.502;2023-05-29T14:41:21;11.30;;;2.60;;
18610;SDS011;9435;52.122;5.502;2023-05-29T14:43:49;9.60;;;2.65;;
18610;SDS011;9435;52.122;5.502;2023-05-29T14:46:17;15.60;;;2.90;;
18610;SDS011;9435;52.122;5.502;2023-05-29T14:48:44;14.73;;;2.80;;
18610;SDS011;9435;52.122;5.502;2023-05-29T14:51:14;9.73;;;2.70;;
18610;SDS011;9435;52.122;5.502;2023-05-29T14:53:42;16.75;;;3.05;;
18610;SDS011;9435;52.122;5.502;2023-05-29T14:56:09;10.15;;;2.53;;
18610;SDS011;9435;52.122;5.502;2023-05-29T14:58:38;15.10;;;2.63;;
18610;SDS011;9435;52.122;5.502;2023-05-29T15:01:06;14.68;;;2.28;;